sensor_id;sensor_type;location;lat;lon;timestamp;P1;durP1;ratioP1;P2;durP2;ratioP2
23044;SDS011;11690;51.716;23.066;2022-12-18T00:01:14;29.57;;;10.57;;
23044;SDS011;11690;51.716;23.066;2022-12-18T00:03:43;23.00;;;9.53;;
23044;SDS011;11690;51.716;23.066;2022-12-18T00:06:13;36.23;;;14.00;;
23044;SDS011;11690;51.716;23.066;2022-12-18T00:08:41;22.77;;;9.67;;
23044;SDS011;11690;51.716;23.066;2022-12-18T00:11:13;22.23;;;10.37;;
23044;SDS011;11690;51.716;23.066;2022-12-18T00:13:42;11.70;;;5.87;;
23044;SDS011;11690;51.716;23.066;2022-12-18T00:16:11;10.30;;;5.83;;
23044;SDS011;11690;51.716;23.066;2022-12-18T00:18:39;11.63;;;6.60;;
23044;SDS011;11690;51.716;23.066;2022-12-18T00:21:08;17.97;;;7.77;;
23044;SDS011;11690;51.716;23.066;2022-12-18T00:23:37;20.40;;;7.33;;
23044;SDS011;11690;51.716;23.066;2022-12-18T00:26:06;16.13;;;7.20;;
23044;SDS011;11690;51.716;23.066;2022-12-18T00:28:36;13.30;;;6.63;;
23044;SDS011;11690;51.716;23.066;2022-12-18T00:31:04;10.53;;;5.73;;
23044;SDS011;11690;51.716;23.066;2022-12-18T00:33:33;11.80;;;4.40;;
23044;SDS011;11690;51.716;23.066;2022-12-18T00:36:08;21.07;;;7.93;;
23044;SDS011;11690;51.716;23.066;2022-12-18T00:38:37;9.37;;;4.90;;
23044;SDS011;11690;51.716;23.066;2022-12-18T00:41:06;19.43;;;6.13;;
23044;SDS011;11690;51.716;23.066;2022-12-18T00:43:35;10.30;;;5.67;;
23044;SDS011;11690;51.716;23.066;2022-12-18T00:46:04;16.47;;;6.57;;
23044;SDS011;11690;51.716;23.066;2022-12-18T00:48:31;18.53;;;4.40;;
23044;SDS011;11690;51.716;23.066;2022-12-18T00:50:58;14.07;;;7.50;;
23044;SDS011;11690;51.716;23.066;2022-12-18T00:53:26;10.60;;;4.27;;
23044;SDS011;11690;51.716;23.066;2022-12-18T00:55:54;14.00;;;6.27;;
23044;SDS011;11690;51.716;23.066;2022-12-18T00:58:21;17.67;;;8.63;;
23044;SDS011;11690;51.716;23.066;2022-12-18T01:00:48;11.13;;;5.33;;
23044;SDS011;11690;51.716;23.066;2022-12-18T01:03:16;22.03;;;6.77;;
23044;SDS011;11690;51.716;23.066;2022-12-18T01:05:43;11.40;;;6.20;;
23044;SDS011;11690;51.716;23.066;2022-12-18T01:08:11;34.33;;;9.60;;
23044;SDS011;11690;51.716;23.066;2022-12-18T01:10:40;27.57;;;11.03;;
23044;SDS011;11690;51.716;23.066;2022-12-18T01:13:08;19.30;;;9.17;;
23044;SDS011;11690;51.716;23.066;2022-12-18T01:15:35;13.43;;;7.70;;
23044;SDS011;11690;51.716;23.066;2022-12-18T01:18:02;11.37;;;5.73;;
23044;SDS011;11690;51.716;23.066;2022-12-18T01:20:32;11.53;;;5.70;;
23044;SDS011;11690;51.716;23.066;2022-12-18T01:22:59;16.73;;;6.43;;
23044;SDS011;11690;51.716;23.066;2022-12-18T01:25:26;13.73;;;5.47;;
23044;SDS011;11690;51.716;23.066;2022-12-18T01:27:53;23.50;;;12.03;;
23044;SDS011;11690;51.716;23.066;2022-12-18T01:30:20;32.03;;;11.83;;
23044;SDS011;11690;51.716;23.066;2022-12-18T01:32:47;27.97;;;10.77;;
23044;SDS011;11690;51.716;23.066;2022-12-18T01:35:14;50.27;;;16.77;;
23044;SDS011;11690;51.716;23.066;2022-12-18T01:37:41;32.27;;;12.70;;
23044;SDS011;11690;51.716;23.066;2022-12-18T01:40:08;29.53;;;10.40;;
23044;SDS011;11690;51.716;23.066;2022-12-18T01:42:37;18.60;;;7.83;;
23044;SDS011;11690;51.716;23.066;2022-12-18T01:47:43;26.63;;;10.37;;
23044;SDS011;11690;51.716;23.066;2022-12-18T01:50:17;21.57;;;9.80;;
23044;SDS011;11690;51.716;23.066;2022-12-18T01:52:53;31.23;;;10.73;;
23044;SDS011;11690;51.716;23.066;2022-12-18T01:55:22;26.43;;;9.53;;
23044;SDS011;11690;51.716;23.066;2022-12-18T01:57:52;20.67;;;8.80;;
23044;SDS011;11690;51.716;23.066;2022-12-18T02:00:20;54.00;;;20.73;;
23044;SDS011;11690;51.716;23.066;2022-12-18T02:02:50;32.33;;;11.70;;
23044;SDS011;11690;51.716;23.066;2022-12-18T02:05:19;39.43;;;14.10;;
23044;SDS011;11690;51.716;23.066;2022-12-18T02:10:32;20.83;;;9.27;;
23044;SDS011;11690;51.716;23.066;2022-12-18T02:13:14;31.23;;;10.03;;
23044;SDS011;11690;51.716;23.066;2022-12-18T02:18:18;25.37;;;9.37;;
23044;SDS011;11690;51.716;23.066;2022-12-18T02:21:11;35.40;;;13.13;;
23044;SDS011;11690;51.716;23.066;2022-12-18T02:23:46;37.10;;;12.70;;
23044;SDS011;11690;51.716;23.066;2022-12-18T02:26:19;19.90;;;9.47;;
23044;SDS011;11690;51.716;23.066;2022-12-18T02:28:52;21.73;;;10.23;;
23044;SDS011;11690;51.716;23.066;2022-12-18T02:31:34;26.10;;;11.27;;
23044;SDS011;11690;51.716;23.066;2022-12-18T02:34:05;25.47;;;10.50;;
23044;SDS011;11690;51.716;23.066;2022-12-18T02:36:38;19.43;;;8.33;;
23044;SDS011;11690;51.716;23.066;2022-12-18T02:39:07;22.70;;;8.97;;
23044;SDS011;11690;51.716;23.066;2022-12-18T02:41:39;13.53;;;6.03;;
23044;SDS011;11690;51.716;23.066;2022-12-18T02:44:08;19.00;;;5.83;;
23044;SDS011;11690;51.716;23.066;2022-12-18T02:46:47;12.47;;;6.43;;
23044;SDS011;11690;51.716;23.066;2022-12-18T02:52:03;26.03;;;10.07;;
23044;SDS011;11690;51.716;23.066;2022-12-18T02:54:48;38.83;;;14.93;;
23044;SDS011;11690;51.716;23.066;2022-12-18T02:57:36;18.57;;;9.83;;
23044;SDS011;11690;51.716;23.066;2022-12-18T03:02:51;27.17;;;10.73;;
23044;SDS011;11690;51.716;23.066;2022-12-18T03:05:29;27.23;;;9.73;;
23044;SDS011;11690;51.716;23.066;2022-12-18T03:08:12;18.77;;;7.97;;
23044;SDS011;11690;51.716;23.066;2022-12-18T03:11:03;7.50;;;5.33;;
23044;SDS011;11690;51.716;23.066;2022-12-18T03:16:23;22.17;;;6.90;;
23044;SDS011;11690;51.716;23.066;2022-12-18T03:18:53;44.87;;;16.43;;
23044;SDS011;11690;51.716;23.066;2022-12-18T03:21:33;25.60;;;11.37;;
23044;SDS011;11690;51.716;23.066;2022-12-18T03:24:03;20.70;;;10.33;;
23044;SDS011;11690;51.716;23.066;2022-12-18T03:26:33;16.00;;;6.93;;
23044;SDS011;11690;51.716;23.066;2022-12-18T03:29:03;29.03;;;8.57;;
23044;SDS011;11690;51.716;23.066;2022-12-18T03:31:36;15.37;;;7.30;;
23044;SDS011;11690;51.716;23.066;2022-12-18T03:34:05;22.40;;;9.83;;
23044;SDS011;11690;51.716;23.066;2022-12-18T03:36:42;21.10;;;10.13;;
23044;SDS011;11690;51.716;23.066;2022-12-18T03:39:09;27.33;;;8.90;;
23044;SDS011;11690;51.716;23.066;2022-12-18T03:44:34;22.17;;;10.83;;
23044;SDS011;11690;51.716;23.066;2022-12-18T03:47:09;21.60;;;8.67;;
23044;SDS011;11690;51.716;23.066;2022-12-18T03:52:41;29.20;;;11.07;;
23044;SDS011;11690;51.716;23.066;2022-12-18T03:55:14;31.53;;;10.60;;
23044;SDS011;11690;51.716;23.066;2022-12-18T03:57:44;23.87;;;10.13;;
23044;SDS011;11690;51.716;23.066;2022-12-18T04:00:13;33.83;;;11.73;;
23044;SDS011;11690;51.716;23.066;2022-12-18T04:02:54;23.37;;;9.47;;
23044;SDS011;11690;51.716;23.066;2022-12-18T04:05:30;32.73;;;10.83;;
23044;SDS011;11690;51.716;23.066;2022-12-18T04:07:59;31.37;;;12.00;;
23044;SDS011;11690;51.716;23.066;2022-12-18T04:10:28;42.63;;;14.63;;
23044;SDS011;11690;51.716;23.066;2022-12-18T04:12:57;27.60;;;11.63;;
23044;SDS011;11690;51.716;23.066;2022-12-18T04:15:24;23.17;;;8.47;;
23044;SDS011;11690;51.716;23.066;2022-12-18T04:17:52;15.83;;;7.07;;
23044;SDS011;11690;51.716;23.066;2022-12-18T04:20:22;26.37;;;11.03;;
23044;SDS011;11690;51.716;23.066;2022-12-18T04:22:50;26.53;;;10.67;;
23044;SDS011;11690;51.716;23.066;2022-12-18T04:25:18;31.77;;;12.50;;
23044;SDS011;11690;51.716;23.066;2022-12-18T04:27:57;21.03;;;9.07;;
23044;SDS011;11690;51.716;23.066;2022-12-18T04:30:24;25.97;;;9.77;;
23044;SDS011;11690;51.716;23.066;2022-12-18T04:32:51;18.90;;;8.17;;
23044;SDS011;11690;51.716;23.066;2022-12-18T04:35:20;24.03;;;9.73;;
23044;SDS011;11690;51.716;23.066;2022-12-18T04:37:47;25.17;;;11.77;;
23044;SDS011;11690;51.716;23.066;2022-12-18T04:40:14;27.77;;;12.70;;
23044;SDS011;11690;51.716;23.066;2022-12-18T04:42:45;25.27;;;10.93;;
23044;SDS011;11690;51.716;23.066;2022-12-18T04:45:12;19.57;;;7.33;;
23044;SDS011;11690;51.716;23.066;2022-12-18T04:47:39;17.17;;;7.17;;
23044;SDS011;11690;51.716;23.066;2022-12-18T04:50:06;22.43;;;10.10;;
23044;SDS011;11690;51.716;23.066;2022-12-18T04:52:34;15.17;;;6.17;;
23044;SDS011;11690;51.716;23.066;2022-12-18T04:55:01;16.87;;;7.67;;
23044;SDS011;11690;51.716;23.066;2022-12-18T04:57:28;11.87;;;6.57;;
23044;SDS011;11690;51.716;23.066;2022-12-18T04:59:55;15.57;;;5.67;;
23044;SDS011;11690;51.716;23.066;2022-12-18T05:02:22;13.53;;;5.73;;
23044;SDS011;11690;51.716;23.066;2022-12-18T05:04:49;15.23;;;6.47;;
23044;SDS011;11690;51.716;23.066;2022-12-18T05:07:16;18.53;;;7.67;;
23044;SDS011;11690;51.716;23.066;2022-12-18T05:09:43;7.77;;;4.10;;
23044;SDS011;11690;51.716;23.066;2022-12-18T05:12:11;16.13;;;5.37;;
23044;SDS011;11690;51.716;23.066;2022-12-18T05:14:37;17.23;;;7.40;;
23044;SDS011;11690;51.716;23.066;2022-12-18T05:17:04;9.13;;;5.23;;
23044;SDS011;11690;51.716;23.066;2022-12-18T05:19:31;16.10;;;8.00;;
23044;SDS011;11690;51.716;23.066;2022-12-18T05:21:59;12.33;;;5.47;;
23044;SDS011;11690;51.716;23.066;2022-12-18T05:24:26;13.97;;;6.97;;
23044;SDS011;11690;51.716;23.066;2022-12-18T05:26:53;18.10;;;6.37;;
23044;SDS011;11690;51.716;23.066;2022-12-18T05:29:20;16.60;;;8.60;;
23044;SDS011;11690;51.716;23.066;2022-12-18T05:31:47;19.30;;;7.90;;
23044;SDS011;11690;51.716;23.066;2022-12-18T05:34:14;23.83;;;10.53;;
23044;SDS011;11690;51.716;23.066;2022-12-18T05:36:41;21.23;;;9.23;;
23044;SDS011;11690;51.716;23.066;2022-12-18T05:39:10;16.27;;;6.13;;
23044;SDS011;11690;51.716;23.066;2022-12-18T05:41:37;12.40;;;6.60;;
23044;SDS011;11690;51.716;23.066;2022-12-18T05:44:04;12.67;;;5.63;;
23044;SDS011;11690;51.716;23.066;2022-12-18T05:46:31;16.73;;;7.23;;
23044;SDS011;11690;51.716;23.066;2022-12-18T05:48:59;16.17;;;6.97;;
23044;SDS011;11690;51.716;23.066;2022-12-18T05:51:28;8.83;;;4.53;;
23044;SDS011;11690;51.716;23.066;2022-12-18T05:53:54;25.80;;;9.97;;
23044;SDS011;11690;51.716;23.066;2022-12-18T05:56:22;9.67;;;5.20;;
23044;SDS011;11690;51.716;23.066;2022-12-18T05:58:53;14.97;;;5.13;;
23044;SDS011;11690;51.716;23.066;2022-12-18T06:01:22;16.60;;;7.57;;
23044;SDS011;11690;51.716;23.066;2022-12-18T06:03:50;14.73;;;6.73;;
23044;SDS011;11690;51.716;23.066;2022-12-18T06:06:22;17.57;;;9.53;;
23044;SDS011;11690;51.716;23.066;2022-12-18T06:08:50;23.60;;;11.70;;
23044;SDS011;11690;51.716;23.066;2022-12-18T06:11:19;21.30;;;9.97;;
23044;SDS011;11690;51.716;23.066;2022-12-18T06:13:51;28.60;;;11.87;;
23044;SDS011;11690;51.716;23.066;2022-12-18T06:16:25;16.97;;;8.33;;
23044;SDS011;11690;51.716;23.066;2022-12-18T06:18:53;23.93;;;11.97;;
23044;SDS011;11690;51.716;23.066;2022-12-18T06:21:23;16.30;;;8.00;;
23044;SDS011;11690;51.716;23.066;2022-12-18T06:23:50;13.10;;;6.10;;
23044;SDS011;11690;51.716;23.066;2022-12-18T06:26:17;9.63;;;4.57;;
23044;SDS011;11690;51.716;23.066;2022-12-18T06:28:51;7.77;;;4.13;;
23044;SDS011;11690;51.716;23.066;2022-12-18T06:31:18;11.50;;;5.40;;
23044;SDS011;11690;51.716;23.066;2022-12-18T06:33:45;10.33;;;5.57;;
23044;SDS011;11690;51.716;23.066;2022-12-18T06:36:13;10.70;;;5.60;;
23044;SDS011;11690;51.716;23.066;2022-12-18T06:38:41;18.67;;;9.03;;
23044;SDS011;11690;51.716;23.066;2022-12-18T06:41:11;26.33;;;10.80;;
23044;SDS011;11690;51.716;23.066;2022-12-18T06:43:39;12.93;;;6.67;;
23044;SDS011;11690;51.716;23.066;2022-12-18T06:46:07;11.90;;;6.60;;
23044;SDS011;11690;51.716;23.066;2022-12-18T06:48:35;15.77;;;5.97;;
23044;SDS011;11690;51.716;23.066;2022-12-18T06:51:02;15.33;;;6.87;;
23044;SDS011;11690;51.716;23.066;2022-12-18T06:53:29;8.90;;;5.53;;
23044;SDS011;11690;51.716;23.066;2022-12-18T06:56:03;11.73;;;6.13;;
23044;SDS011;11690;51.716;23.066;2022-12-18T06:58:36;14.70;;;9.00;;
23044;SDS011;11690;51.716;23.066;2022-12-18T07:01:05;17.00;;;6.90;;
23044;SDS011;11690;51.716;23.066;2022-12-18T07:03:33;9.90;;;5.07;;
23044;SDS011;11690;51.716;23.066;2022-12-18T07:06:00;17.53;;;8.83;;
23044;SDS011;11690;51.716;23.066;2022-12-18T07:08:28;13.83;;;6.17;;
23044;SDS011;11690;51.716;23.066;2022-12-18T07:10:56;18.03;;;6.97;;
23044;SDS011;11690;51.716;23.066;2022-12-18T07:13:23;9.57;;;4.77;;
23044;SDS011;11690;51.716;23.066;2022-12-18T07:15:51;13.90;;;7.53;;
23044;SDS011;11690;51.716;23.066;2022-12-18T07:18:17;16.33;;;7.37;;
23044;SDS011;11690;51.716;23.066;2022-12-18T07:20:45;21.57;;;9.93;;
23044;SDS011;11690;51.716;23.066;2022-12-18T07:23:13;14.23;;;7.10;;
23044;SDS011;11690;51.716;23.066;2022-12-18T07:25:40;21.57;;;9.10;;
23044;SDS011;11690;51.716;23.066;2022-12-18T07:28:07;9.13;;;5.07;;
23044;SDS011;11690;51.716;23.066;2022-12-18T07:30:41;15.23;;;6.13;;
23044;SDS011;11690;51.716;23.066;2022-12-18T07:33:08;11.73;;;6.80;;
23044;SDS011;11690;51.716;23.066;2022-12-18T07:35:35;19.60;;;8.63;;
23044;SDS011;11690;51.716;23.066;2022-12-18T07:38:03;12.53;;;6.93;;
23044;SDS011;11690;51.716;23.066;2022-12-18T07:40:30;10.10;;;5.00;;
23044;SDS011;11690;51.716;23.066;2022-12-18T07:42:57;15.00;;;8.77;;
23044;SDS011;11690;51.716;23.066;2022-12-18T07:45:24;14.97;;;6.83;;
23044;SDS011;11690;51.716;23.066;2022-12-18T07:47:51;18.00;;;6.83;;
23044;SDS011;11690;51.716;23.066;2022-12-18T07:50:18;17.43;;;7.17;;
23044;SDS011;11690;51.716;23.066;2022-12-18T07:52:45;9.00;;;5.27;;
23044;SDS011;11690;51.716;23.066;2022-12-18T07:55:13;10.67;;;5.77;;
23044;SDS011;11690;51.716;23.066;2022-12-18T07:57:40;15.57;;;7.60;;
23044;SDS011;11690;51.716;23.066;2022-12-18T08:00:17;31.03;;;10.87;;
23044;SDS011;11690;51.716;23.066;2022-12-18T08:02:44;11.93;;;5.87;;
23044;SDS011;11690;51.716;23.066;2022-12-18T08:05:12;60.33;;;18.50;;
23044;SDS011;11690;51.716;23.066;2022-12-18T08:07:39;29.87;;;7.50;;
23044;SDS011;11690;51.716;23.066;2022-12-18T08:10:07;15.53;;;7.17;;
23044;SDS011;11690;51.716;23.066;2022-12-18T08:12:34;14.30;;;7.00;;
23044;SDS011;11690;51.716;23.066;2022-12-18T08:15:01;24.73;;;10.13;;
23044;SDS011;11690;51.716;23.066;2022-12-18T08:17:28;121.60;;;38.77;;
23044;SDS011;11690;51.716;23.066;2022-12-18T08:19:56;75.67;;;27.97;;
23044;SDS011;11690;51.716;23.066;2022-12-18T08:22:23;20.33;;;8.33;;
23044;SDS011;11690;51.716;23.066;2022-12-18T08:24:50;45.00;;;16.30;;
23044;SDS011;11690;51.716;23.066;2022-12-18T08:27:17;36.23;;;13.30;;
23044;SDS011;11690;51.716;23.066;2022-12-18T08:29:57;43.30;;;16.77;;
23044;SDS011;11690;51.716;23.066;2022-12-18T08:32:24;15.77;;;7.27;;
23044;SDS011;11690;51.716;23.066;2022-12-18T08:34:52;32.07;;;13.60;;
23044;SDS011;11690;51.716;23.066;2022-12-18T08:37:19;37.57;;;13.27;;
23044;SDS011;11690;51.716;23.066;2022-12-18T08:39:47;22.80;;;9.83;;
23044;SDS011;11690;51.716;23.066;2022-12-18T08:42:14;18.50;;;8.70;;
23044;SDS011;11690;51.716;23.066;2022-12-18T08:44:59;27.47;;;10.93;;
23044;SDS011;11690;51.716;23.066;2022-12-18T08:47:26;31.23;;;13.90;;
23044;SDS011;11690;51.716;23.066;2022-12-18T08:49:53;54.03;;;18.37;;
23044;SDS011;11690;51.716;23.066;2022-12-18T08:52:20;19.63;;;7.07;;
23044;SDS011;11690;51.716;23.066;2022-12-18T08:54:47;18.37;;;7.10;;
23044;SDS011;11690;51.716;23.066;2022-12-18T08:57:14;17.80;;;6.60;;
23044;SDS011;11690;51.716;23.066;2022-12-18T08:59:42;25.90;;;11.17;;
23044;SDS011;11690;51.716;23.066;2022-12-18T09:02:11;15.53;;;7.13;;
23044;SDS011;11690;51.716;23.066;2022-12-18T09:04:39;27.60;;;8.27;;
23044;SDS011;11690;51.716;23.066;2022-12-18T09:07:06;5.43;;;2.97;;
23044;SDS011;11690;51.716;23.066;2022-12-18T09:09:34;17.40;;;8.43;;
23044;SDS011;11690;51.716;23.066;2022-12-18T09:12:00;10.97;;;5.00;;
23044;SDS011;11690;51.716;23.066;2022-12-18T09:14:28;18.90;;;7.40;;
23044;SDS011;11690;51.716;23.066;2022-12-18T09:16:55;10.73;;;4.83;;
23044;SDS011;11690;51.716;23.066;2022-12-18T09:19:22;10.13;;;5.70;;
23044;SDS011;11690;51.716;23.066;2022-12-18T09:21:49;28.47;;;11.73;;
23044;SDS011;11690;51.716;23.066;2022-12-18T09:24:16;7.13;;;4.40;;
23044;SDS011;11690;51.716;23.066;2022-12-18T09:26:44;34.90;;;14.13;;
23044;SDS011;11690;51.716;23.066;2022-12-18T09:29:14;13.17;;;6.43;;
23044;SDS011;11690;51.716;23.066;2022-12-18T09:31:44;24.53;;;10.53;;
23044;SDS011;11690;51.716;23.066;2022-12-18T09:34:11;12.17;;;6.13;;
23044;SDS011;11690;51.716;23.066;2022-12-18T09:36:38;20.73;;;8.83;;
23044;SDS011;11690;51.716;23.066;2022-12-18T09:39:06;13.23;;;5.73;;
23044;SDS011;11690;51.716;23.066;2022-12-18T09:46:40;21.63;;;8.30;;
23044;SDS011;11690;51.716;23.066;2022-12-18T09:49:12;13.90;;;6.40;;
23044;SDS011;11690;51.716;23.066;2022-12-18T09:51:45;22.67;;;8.07;;
23044;SDS011;11690;51.716;23.066;2022-12-18T09:54:25;9.67;;;4.90;;
23044;SDS011;11690;51.716;23.066;2022-12-18T09:56:57;20.70;;;8.07;;
23044;SDS011;11690;51.716;23.066;2022-12-18T09:59:31;11.83;;;5.30;;
23044;SDS011;11690;51.716;23.066;2022-12-18T10:01:59;26.03;;;10.07;;
23044;SDS011;11690;51.716;23.066;2022-12-18T10:04:27;16.50;;;6.40;;
23044;SDS011;11690;51.716;23.066;2022-12-18T10:07:06;14.57;;;6.30;;
23044;SDS011;11690;51.716;23.066;2022-12-18T10:09:51;14.10;;;7.10;;
23044;SDS011;11690;51.716;23.066;2022-12-18T10:12:25;32.00;;;13.80;;
23044;SDS011;11690;51.716;23.066;2022-12-18T10:20:49;15.43;;;6.50;;
23044;SDS011;11690;51.716;23.066;2022-12-18T10:23:29;17.80;;;6.97;;
23044;SDS011;11690;51.716;23.066;2022-12-18T10:28:31;30.57;;;9.83;;
23044;SDS011;11690;51.716;23.066;2022-12-18T10:31:01;14.97;;;7.07;;
23044;SDS011;11690;51.716;23.066;2022-12-18T10:33:29;30.73;;;11.43;;
23044;SDS011;11690;51.716;23.066;2022-12-18T10:35:57;46.50;;;17.77;;
23044;SDS011;11690;51.716;23.066;2022-12-18T10:38:30;20.77;;;10.23;;
23044;SDS011;11690;51.716;23.066;2022-12-18T10:41:00;31.40;;;12.50;;
23044;SDS011;11690;51.716;23.066;2022-12-18T10:43:36;23.97;;;11.13;;
23044;SDS011;11690;51.716;23.066;2022-12-18T10:51:34;31.00;;;11.33;;
23044;SDS011;11690;51.716;23.066;2022-12-18T10:54:12;21.77;;;10.57;;
23044;SDS011;11690;51.716;23.066;2022-12-18T10:56:41;22.23;;;9.10;;
23044;SDS011;11690;51.716;23.066;2022-12-18T10:59:11;30.57;;;10.80;;
23044;SDS011;11690;51.716;23.066;2022-12-18T11:04:16;36.23;;;14.00;;
23044;SDS011;11690;51.716;23.066;2022-12-18T11:07:02;37.43;;;14.30;;
23044;SDS011;11690;51.716;23.066;2022-12-18T11:09:31;14.80;;;6.43;;
23044;SDS011;11690;51.716;23.066;2022-12-18T11:12:00;24.00;;;10.10;;
23044;SDS011;11690;51.716;23.066;2022-12-18T11:14:33;19.60;;;8.80;;
23044;SDS011;11690;51.716;23.066;2022-12-18T11:17:24;20.00;;;8.27;;
23044;SDS011;11690;51.716;23.066;2022-12-18T11:19:59;20.73;;;8.77;;
23044;SDS011;11690;51.716;23.066;2022-12-18T11:22:34;18.70;;;7.10;;
23044;SDS011;11690;51.716;23.066;2022-12-18T11:25:20;21.23;;;8.97;;
23044;SDS011;11690;51.716;23.066;2022-12-18T11:28:04;25.43;;;12.33;;
23044;SDS011;11690;51.716;23.066;2022-12-18T11:30:36;27.27;;;11.90;;
23044;SDS011;11690;51.716;23.066;2022-12-18T11:33:13;24.23;;;8.97;;
23044;SDS011;11690;51.716;23.066;2022-12-18T11:35:45;16.03;;;7.37;;
23044;SDS011;11690;51.716;23.066;2022-12-18T11:40:58;21.83;;;8.53;;
23044;SDS011;11690;51.716;23.066;2022-12-18T11:43:48;12.03;;;6.00;;
23044;SDS011;11690;51.716;23.066;2022-12-18T11:46:18;18.80;;;9.17;;
23044;SDS011;11690;51.716;23.066;2022-12-18T11:49:07;13.13;;;6.63;;
23044;SDS011;11690;51.716;23.066;2022-12-18T11:51:46;16.60;;;6.23;;
23044;SDS011;11690;51.716;23.066;2022-12-18T11:54:15;17.07;;;7.67;;
23044;SDS011;11690;51.716;23.066;2022-12-18T12:02:15;15.07;;;6.60;;
23044;SDS011;11690;51.716;23.066;2022-12-18T12:10:12;21.60;;;8.47;;
23044;SDS011;11690;51.716;23.066;2022-12-18T12:13:22;35.10;;;14.97;;
23044;SDS011;11690;51.716;23.066;2022-12-18T12:21:55;55.63;;;19.80;;
23044;SDS011;11690;51.716;23.066;2022-12-18T12:30:03;21.17;;;8.47;;
23044;SDS011;11690;51.716;23.066;2022-12-18T12:35:31;18.53;;;6.47;;
23044;SDS011;11690;51.716;23.066;2022-12-18T12:38:11;11.00;;;5.60;;
23044;SDS011;11690;51.716;23.066;2022-12-18T12:40:40;25.70;;;10.27;;
23044;SDS011;11690;51.716;23.066;2022-12-18T12:43:27;13.63;;;6.53;;
23044;SDS011;11690;51.716;23.066;2022-12-18T12:46:03;25.67;;;9.33;;
23044;SDS011;11690;51.716;23.066;2022-12-18T12:51:04;23.20;;;8.73;;
23044;SDS011;11690;51.716;23.066;2022-12-18T12:53:39;46.07;;;18.33;;
23044;SDS011;11690;51.716;23.066;2022-12-18T12:56:08;30.47;;;10.77;;
23044;SDS011;11690;51.716;23.066;2022-12-18T12:58:41;14.03;;;6.70;;
23044;SDS011;11690;51.716;23.066;2022-12-18T13:09:06;18.17;;;7.77;;
23044;SDS011;11690;51.716;23.066;2022-12-18T13:19:44;35.47;;;15.30;;
23044;SDS011;11690;51.716;23.066;2022-12-18T13:24:52;24.30;;;11.60;;
23044;SDS011;11690;51.716;23.066;2022-12-18T13:38:33;27.97;;;11.47;;
23044;SDS011;11690;51.716;23.066;2022-12-18T13:41:02;21.50;;;8.57;;
23044;SDS011;11690;51.716;23.066;2022-12-18T13:49:03;26.73;;;10.43;;
23044;SDS011;11690;51.716;23.066;2022-12-18T13:51:44;24.40;;;10.93;;
23044;SDS011;11690;51.716;23.066;2022-12-18T13:56:53;22.47;;;9.17;;
23044;SDS011;11690;51.716;23.066;2022-12-18T14:04:46;23.30;;;10.53;;
23044;SDS011;11690;51.716;23.066;2022-12-18T14:07:25;45.07;;;19.23;;
23044;SDS011;11690;51.716;23.066;2022-12-18T14:10:00;59.17;;;19.27;;
23044;SDS011;11690;51.716;23.066;2022-12-18T14:12:48;36.73;;;14.57;;
23044;SDS011;11690;51.716;23.066;2022-12-18T14:15:35;48.07;;;20.53;;
23044;SDS011;11690;51.716;23.066;2022-12-18T14:20:41;39.63;;;17.50;;
23044;SDS011;11690;51.716;23.066;2022-12-18T14:26:01;50.47;;;17.60;;
23044;SDS011;11690;51.716;23.066;2022-12-18T14:28:32;47.17;;;16.23;;
23044;SDS011;11690;51.716;23.066;2022-12-18T14:30:59;48.50;;;16.23;;
23044;SDS011;11690;51.716;23.066;2022-12-18T14:33:27;43.00;;;16.70;;
23044;SDS011;11690;51.716;23.066;2022-12-18T14:35:55;36.30;;;13.30;;
23044;SDS011;11690;51.716;23.066;2022-12-18T14:38:29;52.67;;;18.47;;
23044;SDS011;11690;51.716;23.066;2022-12-18T14:43:32;79.20;;;23.53;;
23044;SDS011;11690;51.716;23.066;2022-12-18T14:46:00;73.70;;;23.83;;
23044;SDS011;11690;51.716;23.066;2022-12-18T14:48:36;71.60;;;18.63;;
23044;SDS011;11690;51.716;23.066;2022-12-18T14:51:12;45.60;;;15.53;;
23044;SDS011;11690;51.716;23.066;2022-12-18T14:53:42;66.73;;;21.33;;
23044;SDS011;11690;51.716;23.066;2022-12-18T15:02:10;75.57;;;32.57;;
23044;SDS011;11690;51.716;23.066;2022-12-18T15:04:27;80.53;;;26.03;;
23044;SDS011;11690;51.716;23.066;2022-12-18T15:07:38;74.60;;;22.97;;
23044;SDS011;11690;51.716;23.066;2022-12-18T15:12:48;64.07;;;20.27;;
23044;SDS011;11690;51.716;23.066;2022-12-18T15:18:05;68.77;;;21.80;;
23044;SDS011;11690;51.716;23.066;2022-12-18T15:23:16;59.83;;;18.60;;
23044;SDS011;11690;51.716;23.066;2022-12-18T15:25:45;53.50;;;17.23;;
23044;SDS011;11690;51.716;23.066;2022-12-18T15:28:23;78.37;;;24.73;;
23044;SDS011;11690;51.716;23.066;2022-12-18T15:33:43;89.10;;;25.83;;
23044;SDS011;11690;51.716;23.066;2022-12-18T15:36:17;79.37;;;22.73;;
23044;SDS011;11690;51.716;23.066;2022-12-18T15:38:52;61.90;;;19.60;;
23044;SDS011;11690;51.716;23.066;2022-12-18T15:41:21;67.57;;;21.93;;
23044;SDS011;11690;51.716;23.066;2022-12-18T15:43:51;63.93;;;19.83;;
23044;SDS011;11690;51.716;23.066;2022-12-18T15:46:20;88.90;;;27.20;;
23044;SDS011;11690;51.716;23.066;2022-12-18T15:48:49;70.27;;;25.87;;
23044;SDS011;11690;51.716;23.066;2022-12-18T15:51:34;79.83;;;28.77;;
23044;SDS011;11690;51.716;23.066;2022-12-18T15:54:03;150.73;;;53.70;;
23044;SDS011;11690;51.716;23.066;2022-12-18T15:56:32;169.27;;;50.23;;
23044;SDS011;11690;51.716;23.066;2022-12-18T15:59:18;99.67;;;31.07;;
23044;SDS011;11690;51.716;23.066;2022-12-18T16:01:48;87.90;;;31.70;;
23044;SDS011;11690;51.716;23.066;2022-12-18T16:04:17;89.10;;;31.40;;
23044;SDS011;11690;51.716;23.066;2022-12-18T16:06:47;54.20;;;20.47;;
23044;SDS011;11690;51.716;23.066;2022-12-18T16:09:35;62.40;;;22.97;;
23044;SDS011;11690;51.716;23.066;2022-12-18T16:12:03;46.77;;;16.63;;
23044;SDS011;11690;51.716;23.066;2022-12-18T16:14:30;53.37;;;17.37;;
23044;SDS011;11690;51.716;23.066;2022-12-18T16:16:59;75.83;;;30.20;;
23044;SDS011;11690;51.716;23.066;2022-12-18T16:19:27;85.33;;;28.80;;
23044;SDS011;11690;51.716;23.066;2022-12-18T16:21:56;68.53;;;24.53;;
23044;SDS011;11690;51.716;23.066;2022-12-18T16:24:25;49.33;;;18.90;;
23044;SDS011;11690;51.716;23.066;2022-12-18T16:26:55;48.00;;;17.83;;
23044;SDS011;11690;51.716;23.066;2022-12-18T16:29:22;83.70;;;28.57;;
23044;SDS011;11690;51.716;23.066;2022-12-18T16:31:54;61.63;;;21.33;;
23044;SDS011;11690;51.716;23.066;2022-12-18T16:34:26;97.10;;;32.83;;
23044;SDS011;11690;51.716;23.066;2022-12-18T16:37:02;97.17;;;31.63;;
23044;SDS011;11690;51.716;23.066;2022-12-18T16:39:32;110.90;;;37.93;;
23044;SDS011;11690;51.716;23.066;2022-12-18T16:42:05;96.60;;;37.27;;
23044;SDS011;11690;51.716;23.066;2022-12-18T16:44:35;115.10;;;43.53;;
23044;SDS011;11690;51.716;23.066;2022-12-18T16:47:03;114.97;;;42.63;;
23044;SDS011;11690;51.716;23.066;2022-12-18T16:49:32;60.73;;;26.10;;
23044;SDS011;11690;51.716;23.066;2022-12-18T16:51:59;102.47;;;37.27;;
23044;SDS011;11690;51.716;23.066;2022-12-18T16:54:27;120.90;;;42.97;;
23044;SDS011;11690;51.716;23.066;2022-12-18T16:56:56;114.37;;;41.03;;
23044;SDS011;11690;51.716;23.066;2022-12-18T16:59:24;153.83;;;56.47;;